createdAt,value
2023-03-22T00:01:13.372Z,49.90
2023-03-22T00:03:47.167Z,49.60
2023-03-22T00:06:21.350Z,43.50
2023-03-22T00:08:55.983Z,48.10
2023-03-22T00:11:29.520Z,46.40
2023-03-22T00:14:03.661Z,47.50
2023-03-22T00:16:37.362Z,48.40
2023-03-22T00:19:10.934Z,52.50
2023-03-22T00:21:45.357Z,47.80
2023-03-22T00:24:18.901Z,50.60
2023-03-22T00:26:52.959Z,45.10
2023-03-22T00:29:26.549Z,46.00
2023-03-22T00:32:00.524Z,48.40
2023-03-22T00:34:36.559Z,44.30
2023-03-22T00:37:10.229Z,43.30
2023-03-22T00:39:44.596Z,46.50
2023-03-22T00:42:18.270Z,45.10
2023-03-22T00:44:55.427Z,44.40
2023-03-22T00:47:28.863Z,42.60
2023-03-22T00:50:02.595Z,45.40
2023-03-22T00:52:36.649Z,46.00
2023-03-22T00:55:11.445Z,44.20
2023-03-22T00:57:45.276Z,43.50
2023-03-22T01:00:20.283Z,45.10
2023-03-22T01:03:00.209Z,47.10
2023-03-22T01:05:35.325Z,42.20
2023-03-22T01:08:10.320Z,46.50
2023-03-22T01:10:45.127Z,39.60
2023-03-22T01:13:19.287Z,42.30
2023-03-22T01:15:55.145Z,40.70
2023-03-22T01:18:28.882Z,42.60
2023-03-22T01:21:02.407Z,43.40
2023-03-22T01:23:36.243Z,48.00
2023-03-22T01:26:10.321Z,43.00
2023-03-22T01:28:43.831Z,43.50
2023-03-22T01:31:17.504Z,43.20
2023-03-22T01:33:51.756Z,41.90
2023-03-22T01:36:26.175Z,43.50
2023-03-22T01:39:00.033Z,46.20
2023-03-22T01:41:35.562Z,43.90
2023-03-22T01:44:15.803Z,39.60
2023-03-22T01:46:50.693Z,43.80
2023-03-22T01:49:29.143Z,46.80
2023-03-22T01:52:05.283Z,43.00
2023-03-22T01:55:18.653Z,43.10
2023-03-22T01:57:55.779Z,43.80
2023-03-22T02:00:39.679Z,37.30
2023-03-22T02:03:27.604Z,41.70
2023-03-22T02:06:01.976Z,42.30
2023-03-22T02:08:35.925Z,40.40
2023-03-22T02:11:18.927Z,43.00
2023-03-22T02:17:11.705Z,38.70
2023-03-22T02:20:15.938Z,42.90
2023-03-22T02:23:24.380Z,40.40
2023-03-22T02:26:34.404Z,41.20
2023-03-22T02:29:14.170Z,39.20
2023-03-22T02:32:12.650Z,40.70
2023-03-22T02:38:00.522Z,43.50
2023-03-22T02:40:40.743Z,42.50
2023-03-22T02:43:23.854Z,40.20
2023-03-22T02:46:05.074Z,42.50
2023-03-22T02:48:44.126Z,39.10
2023-03-22T02:51:23.791Z,37.10
2023-03-22T02:54:01.484Z,44.80
2023-03-22T02:56:41.535Z,42.50
2023-03-22T02:59:18.033Z,44.30
2023-03-22T03:01:54.148Z,42.00
2023-03-22T03:04:30.387Z,45.50
2023-03-22T03:07:09.789Z,40.70
2023-03-22T03:09:46.265Z,41.10
2023-03-22T03:12:23.481Z,44.60
2023-03-22T03:14:57.852Z,45.00
2023-03-22T03:17:42.663Z,40.50
2023-03-22T03:20:30.572Z,42.10
2023-03-22T03:23:17.770Z,45.20
2023-03-22T03:26:02.201Z,46.30
2023-03-22T03:28:40.864Z,42.50
2023-03-22T03:31:30.436Z,44.90
2023-03-22T03:34:13.117Z,44.70
2023-03-22T03:36:54.552Z,49.60
2023-03-22T03:39:32.425Z,45.30
2023-03-22T03:42:08.618Z,48.60
2023-03-22T03:44:43.634Z,46.60
2023-03-22T03:47:18.658Z,40.70
2023-03-22T03:49:52.587Z,43.30
2023-03-22T03:52:26.942Z,45.90
2023-03-22T03:55:00.705Z,41.60
2023-03-22T03:57:38.316Z,44.70
2023-03-22T04:00:15.228Z,46.80
2023-03-22T04:03:12.427Z,42.20
2023-03-22T04:06:09.211Z,41.60
2023-03-22T04:08:45.809Z,43.20
2023-03-22T04:11:21.853Z,48.60
2023-03-22T04:13:57.187Z,41.30
2023-03-22T04:16:31.311Z,41.10
2023-03-22T04:19:05.012Z,39.60
2023-03-22T04:21:39.002Z,43.30
2023-03-22T04:24:14.335Z,45.80
2023-03-22T04:26:49.412Z,46.50
2023-03-22T04:29:48.565Z,45.00
2023-03-22T04:33:01.620Z,44.50
2023-03-22T04:35:48.837Z,45.70
2023-03-22T04:38:23.226Z,46.80
2023-03-22T04:40:58.860Z,47.10
2023-03-22T04:43:47.250Z,46.40
2023-03-22T04:46:22.988Z,51.40
2023-03-22T04:49:01.481Z,45.60
2023-03-22T04:51:35.304Z,50.90
2023-03-22T04:54:22.990Z,43.90
2023-03-22T04:56:57.153Z,43.30
2023-03-22T04:59:31.938Z,45.80
2023-03-22T05:02:06.183Z,42.10
2023-03-22T05:04:46.383Z,44.30
2023-03-22T05:07:40.980Z,42.50
2023-03-22T05:10:16.069Z,39.60
2023-03-22T05:12:49.788Z,44.50
2023-03-22T05:15:27.651Z,41.10
2023-03-22T05:18:01.478Z,41.70
2023-03-22T05:20:35.355Z,43.80
2023-03-22T05:23:19.873Z,44.10
2023-03-22T05:25:58.572Z,43.90
2023-03-22T05:28:33.276Z,39.10
2023-03-22T05:31:18.046Z,40.80
2023-03-22T05:34:01.760Z,38.80
2023-03-22T05:36:37.464Z,39.00
2023-03-22T05:39:34.208Z,36.10
2023-03-22T05:42:07.684Z,36.30
2023-03-22T05:44:42.631Z,35.00
2023-03-22T05:47:18.963Z,36.00
2023-03-22T05:50:05.694Z,36.10
2023-03-22T05:52:40.139Z,37.20
2023-03-22T05:55:30.625Z,33.40
2023-03-22T05:58:05.549Z,34.40
2023-03-22T06:00:41.939Z,30.30
2023-03-22T06:03:36.348Z,32.20
2023-03-22T06:06:17.427Z,31.30
2023-03-22T06:09:16.027Z,28.70
2023-03-22T06:11:51.500Z,31.50
2023-03-22T06:14:25.674Z,32.50
2023-03-22T06:17:15.825Z,31.80
2023-03-22T06:19:51.442Z,31.10
2023-03-22T06:22:26.934Z,28.40
2023-03-22T06:25:01.581Z,29.40
2023-03-22T06:27:42.688Z,30.50
2023-03-22T06:30:17.764Z,26.00
2023-03-22T06:33:13.168Z,26.20
2023-03-22T06:35:49.845Z,24.70
2023-03-22T06:38:28.804Z,24.00
2023-03-22T06:41:02.304Z,24.90
2023-03-22T06:43:36.275Z,25.40
2023-03-22T06:46:21.605Z,22.70
2023-03-22T06:49:03.590Z,27.70
2023-03-22T06:51:37.136Z,23.60
2023-03-22T06:54:13.017Z,24.50
2023-03-22T06:56:46.927Z,24.00
2023-03-22T06:59:21.393Z,22.30
2023-03-22T07:01:55.720Z,21.00
2023-03-22T07:04:29.642Z,21.90
2023-03-22T07:07:03.728Z,21.50
2023-03-22T07:09:38.083Z,20.20
2023-03-22T07:12:12.306Z,24.30
2023-03-22T07:14:46.116Z,23.30
2023-03-22T07:17:38.382Z,20.60
2023-03-22T07:20:13.499Z,22.60
2023-03-22T07:22:48.554Z,21.50
2023-03-22T07:25:23.014Z,22.50
2023-03-22T07:28:03.058Z,23.90
2023-03-22T07:30:38.390Z,23.60
2023-03-22T07:33:13.668Z,22.30
2023-03-22T07:35:47.978Z,22.50
2023-03-22T07:38:21.766Z,24.80
2023-03-22T07:40:57.313Z,23.70
2023-03-22T07:43:47.313Z,21.90
2023-03-22T07:46:30.118Z,20.10
2023-03-22T07:49:23.845Z,22.80
2023-03-22T07:52:14.366Z,19.40
2023-03-22T07:54:48.191Z,21.90
2023-03-22T07:57:22.359Z,20.30
2023-03-22T08:00:02.000Z,22.80
2023-03-22T08:02:49.594Z,19.70
2023-03-22T08:05:45.451Z,19.20
2023-03-22T08:08:21.042Z,20.00
2023-03-22T08:10:54.623Z,22.10
2023-03-22T08:13:28.485Z,20.00
2023-03-22T08:16:02.616Z,22.10
2023-03-22T08:18:36.830Z,20.00
2023-03-22T08:21:12.225Z,22.40
2023-03-22T08:23:48.692Z,21.50
2023-03-22T08:26:42.951Z,21.50
2023-03-22T08:29:24.093Z,22.30
2023-03-22T08:32:02.698Z,22.80
2023-03-22T08:34:40.429Z,24.60
2023-03-22T08:37:14.421Z,21.20
2023-03-22T08:39:49.380Z,22.30
2023-03-22T08:42:28.878Z,21.70
2023-03-22T08:45:02.749Z,23.80
2023-03-22T08:47:36.845Z,24.00
2023-03-22T08:50:13.016Z,25.50
2023-03-22T08:52:54.067Z,22.10
2023-03-22T08:55:37.148Z,21.70
2023-03-22T08:58:21.402Z,21.30
2023-03-22T09:01:17.097Z,21.50
2023-03-22T09:04:03.767Z,23.20
2023-03-22T09:06:37.838Z,20.20
2023-03-22T09:09:12.217Z,22.60
2023-03-22T09:11:46.577Z,23.10
2023-03-22T09:14:20.089Z,22.70
2023-03-22T09:16:53.917Z,21.50
2023-03-22T09:19:27.840Z,20.40
2023-03-22T09:22:01.717Z,20.70
2023-03-22T09:24:42.235Z,21.70
2023-03-22T09:27:16.255Z,19.90
2023-03-22T09:29:51.257Z,19.80
2023-03-22T09:32:25.879Z,18.90
2023-03-22T09:35:04.837Z,18.00
2023-03-22T09:37:45.903Z,21.40
2023-03-22T09:40:20.452Z,20.70
2023-03-22T09:42:57.812Z,20.80
2023-03-22T09:45:39.039Z,20.30
2023-03-22T09:48:19.272Z,22.70
2023-03-22T09:50:55.429Z,18.30
2023-03-22T09:53:31.235Z,18.40
2023-03-22T09:56:11.705Z,19.90
2023-03-22T09:58:52.622Z,19.70
2023-03-22T10:01:38.668Z,20.30
2023-03-22T10:04:42.525Z,17.80
2023-03-22T10:07:27.538Z,22.10
2023-03-22T10:10:18.666Z,20.70
2023-03-22T10:13:00.391Z,19.40
2023-03-22T10:15:39.307Z,18.90
2023-03-22T10:18:20.307Z,20.70
2023-03-22T10:21:00.865Z,21.20
2023-03-22T10:23:40.869Z,20.10
2023-03-22T10:26:23.598Z,18.50
2023-03-22T10:29:04.094Z,20.00
2023-03-22T10:31:38.182Z,22.30
2023-03-22T10:34:19.120Z,19.90
2023-03-22T10:36:54.638Z,20.40
2023-03-22T10:39:35.747Z,20.00
2023-03-22T10:42:13.979Z,19.10
2023-03-22T10:44:52.502Z,20.50
2023-03-22T10:47:33.702Z,19.90
2023-03-22T10:50:11.933Z,21.10
2023-03-22T10:52:52.660Z,21.30
2023-03-22T10:55:27.892Z,20.40
2023-03-22T10:58:12.825Z,20.50
2023-03-22T11:00:49.822Z,19.50
2023-03-22T11:03:38.359Z,19.70
2023-03-22T11:06:15.783Z,17.80
2023-03-22T11:08:51.394Z,19.30
2023-03-22T11:11:28.299Z,19.30
2023-03-22T11:14:08.276Z,20.70
2023-03-22T11:16:49.795Z,20.40
2023-03-22T11:19:28.325Z,19.10
2023-03-22T11:22:04.180Z,18.30
2023-03-22T11:24:38.273Z,20.50
2023-03-22T11:27:22.872Z,18.10
2023-03-22T11:29:59.780Z,17.40
2023-03-22T11:32:37.269Z,16.30
2023-03-22T11:35:16.965Z,19.10
2023-03-22T11:37:53.197Z,17.90
2023-03-22T11:40:28.508Z,19.00
2023-03-22T11:43:13.353Z,18.90
2023-03-22T11:45:50.044Z,17.70
2023-03-22T11:48:27.506Z,18.20
2023-03-22T11:51:07.527Z,18.90
2023-03-22T11:53:44.681Z,20.10
2023-03-22T11:56:23.954Z,17.30
2023-03-22T11:59:07.156Z,19.20
2023-03-22T12:01:46.161Z,18.40
2023-03-22T12:04:24.708Z,19.40
2023-03-22T12:09:41.689Z,18.60
2023-03-22T12:12:20.059Z,19.90
2023-03-22T12:14:59.180Z,19.90
2023-03-22T12:17:39.192Z,17.90
2023-03-22T12:20:23.795Z,17.60
2023-03-22T12:22:58.663Z,19.40
2023-03-22T12:25:36.039Z,15.90
2023-03-22T12:28:15.798Z,18.30
2023-03-22T12:30:51.598Z,16.40
2023-03-22T12:33:30.211Z,15.70
2023-03-22T12:36:06.663Z,17.20
2023-03-22T12:38:48.725Z,17.10
2023-03-22T12:41:28.626Z,16.20
2023-03-22T12:44:05.523Z,19.80
2023-03-22T12:46:51.063Z,15.80
2023-03-22T12:49:35.589Z,14.00
2023-03-22T12:52:17.771Z,16.40
2023-03-22T12:54:53.998Z,19.30
2023-03-22T12:57:27.929Z,16.00
2023-03-22T13:00:11.044Z,17.30
2023-03-22T13:02:55.322Z,16.60
2023-03-22T13:05:31.827Z,17.10
2023-03-22T13:08:06.213Z,17.00
2023-03-22T13:10:59.221Z,15.30
2023-03-22T13:13:48.068Z,16.50
2023-03-22T13:16:50.986Z,16.40
2023-03-22T13:19:38.595Z,15.60
2023-03-22T13:22:30.944Z,15.00
2023-03-22T13:25:15.206Z,17.60
2023-03-22T13:27:57.079Z,19.60
2023-03-22T13:30:35.091Z,15.50
2023-03-22T13:33:22.230Z,14.70
2023-03-22T13:35:59.261Z,15.00
2023-03-22T13:38:35.415Z,15.30
2023-03-22T13:41:10.893Z,15.90
2023-03-22T13:43:51.466Z,15.30
2023-03-22T13:46:48.345Z,15.60
2023-03-22T13:49:45.049Z,14.20
2023-03-22T13:52:30.178Z,16.50
2023-03-22T13:55:04.486Z,16.00
2023-03-22T13:57:51.617Z,19.00
2023-03-22T14:00:39.419Z,15.10
2023-03-22T14:03:23.567Z,15.30
2023-03-22T14:06:07.727Z,16.30
2023-03-22T14:08:42.378Z,15.70
2023-03-22T14:11:25.841Z,17.50
2023-03-22T14:14:07.081Z,16.40
2023-03-22T14:16:43.825Z,17.70
2023-03-22T14:19:23.714Z,19.30
